sensor_id;sensor_type;location;lat;lon;timestamp;P1;durP1;ratioP1;P2;durP2;ratioP2
47483;SDS011;54076;50.322;18.650;2022-10-19T00:03:57;7.90;;;3.90;;
47483;SDS011;54076;50.322;18.650;2022-10-19T00:09:10;7.50;;;4.30;;
47483;SDS011;54076;50.322;18.650;2022-10-19T00:14:16;7.60;;;4.30;;
47483;SDS011;54076;50.322;18.650;2022-10-19T00:19:22;10.10;;;4.80;;
47483;SDS011;54076;50.322;18.650;2022-10-19T00:24:25;9.60;;;5.00;;
47483;SDS011;54076;50.322;18.650;2022-10-19T00:29:26;8.70;;;4.70;;
47483;SDS011;54076;50.322;18.650;2022-10-19T00:34:27;8.60;;;4.50;;
47483;SDS011;54076;50.322;18.650;2022-10-19T00:39:28;7.30;;;4.10;;
47483;SDS011;54076;50.322;18.650;2022-10-19T00:49:32;7.20;;;4.20;;
47483;SDS011;54076;50.322;18.650;2022-10-19T00:54:38;9.00;;;5.00;;
47483;SDS011;54076;50.322;18.650;2022-10-19T00:59:41;9.70;;;4.70;;
47483;SDS011;54076;50.322;18.650;2022-10-19T01:04:46;9.40;;;5.60;;
47483;SDS011;54076;50.322;18.650;2022-10-19T01:09:52;10.70;;;5.50;;
47483;SDS011;54076;50.322;18.650;2022-10-19T01:20:53;11.90;;;6.50;;
47483;SDS011;54076;50.322;18.650;2022-10-19T01:26:35;11.80;;;6.10;;
47483;SDS011;54076;50.322;18.650;2022-10-19T01:32:11;12.40;;;6.30;;
47483;SDS011;54076;50.322;18.650;2022-10-19T01:37:35;12.90;;;6.80;;
47483;SDS011;54076;50.322;18.650;2022-10-19T01:48:27;12.30;;;6.70;;
47483;SDS011;54076;50.322;18.650;2022-10-19T01:53:36;12.00;;;7.30;;
47483;SDS011;54076;50.322;18.650;2022-10-19T01:58:41;14.70;;;7.10;;
47483;SDS011;54076;50.322;18.650;2022-10-19T02:03:44;11.10;;;6.90;;
47483;SDS011;54076;50.322;18.650;2022-10-19T02:08:47;12.70;;;6.70;;
47483;SDS011;54076;50.322;18.650;2022-10-19T02:13:59;11.20;;;6.70;;
47483;SDS011;54076;50.322;18.650;2022-10-19T02:19:09;13.10;;;6.90;;
47483;SDS011;54076;50.322;18.650;2022-10-19T02:24:14;12.50;;;7.00;;
47483;SDS011;54076;50.322;18.650;2022-10-19T02:29:15;13.40;;;7.40;;
47483;SDS011;54076;50.322;18.650;2022-10-19T02:34:16;13.00;;;7.70;;
47483;SDS011;54076;50.322;18.650;2022-10-19T02:39:17;13.20;;;8.00;;
47483;SDS011;54076;50.322;18.650;2022-10-19T02:44:25;14.30;;;8.00;;
47483;SDS011;54076;50.322;18.650;2022-10-19T02:49:33;14.30;;;7.60;;
47483;SDS011;54076;50.322;18.650;2022-10-19T02:54:36;14.10;;;7.30;;
47483;SDS011;54076;50.322;18.650;2022-10-19T02:59:38;15.90;;;7.40;;
47483;SDS011;54076;50.322;18.650;2022-10-19T03:04:39;14.20;;;8.20;;
47483;SDS011;54076;50.322;18.650;2022-10-19T03:09:47;13.90;;;8.00;;
47483;SDS011;54076;50.322;18.650;2022-10-19T03:14:48;14.60;;;7.40;;
47483;SDS011;54076;50.322;18.650;2022-10-19T03:19:49;14.40;;;7.60;;
47483;SDS011;54076;50.322;18.650;2022-10-19T03:24:50;13.40;;;7.40;;
47483;SDS011;54076;50.322;18.650;2022-10-19T03:29:51;13.40;;;7.70;;
47483;SDS011;54076;50.322;18.650;2022-10-19T03:34:52;16.10;;;7.70;;
47483;SDS011;54076;50.322;18.650;2022-10-19T03:39:53;14.20;;;8.30;;
47483;SDS011;54076;50.322;18.650;2022-10-19T03:44:54;15.50;;;7.50;;
47483;SDS011;54076;50.322;18.650;2022-10-19T03:49:55;14.00;;;7.40;;
47483;SDS011;54076;50.322;18.650;2022-10-19T03:54:56;15.70;;;8.00;;
47483;SDS011;54076;50.322;18.650;2022-10-19T03:59:57;13.30;;;7.90;;
47483;SDS011;54076;50.322;18.650;2022-10-19T04:04:57;13.10;;;7.70;;
47483;SDS011;54076;50.322;18.650;2022-10-19T04:09:58;14.60;;;7.10;;
47483;SDS011;54076;50.322;18.650;2022-10-19T04:14:59;15.30;;;7.60;;
47483;SDS011;54076;50.322;18.650;2022-10-19T04:20:00;17.00;;;8.50;;
47483;SDS011;54076;50.322;18.650;2022-10-19T04:25:01;14.20;;;7.80;;
47483;SDS011;54076;50.322;18.650;2022-10-19T04:30:02;15.60;;;7.90;;
47483;SDS011;54076;50.322;18.650;2022-10-19T04:35:04;26.40;;;11.60;;
47483;SDS011;54076;50.322;18.650;2022-10-19T04:40:07;15.70;;;8.80;;
47483;SDS011;54076;50.322;18.650;2022-10-19T04:45:09;15.00;;;8.60;;
47483;SDS011;54076;50.322;18.650;2022-10-19T04:50:10;15.50;;;7.70;;
47483;SDS011;54076;50.322;18.650;2022-10-19T04:55:11;16.40;;;7.60;;
47483;SDS011;54076;50.322;18.650;2022-10-19T05:00:13;16.00;;;7.80;;
47483;SDS011;54076;50.322;18.650;2022-10-19T05:05:14;16.50;;;7.20;;
47483;SDS011;54076;50.322;18.650;2022-10-19T05:10:15;14.00;;;7.40;;
47483;SDS011;54076;50.322;18.650;2022-10-19T05:15:16;15.20;;;7.90;;
47483;SDS011;54076;50.322;18.650;2022-10-19T05:20:17;15.70;;;8.20;;
47483;SDS011;54076;50.322;18.650;2022-10-19T05:25:18;16.50;;;7.90;;
47483;SDS011;54076;50.322;18.650;2022-10-19T05:30:19;15.00;;;7.90;;
47483;SDS011;54076;50.322;18.650;2022-10-19T05:35:24;17.60;;;8.00;;
47483;SDS011;54076;50.322;18.650;2022-10-19T05:40:24;20.30;;;9.20;;
47483;SDS011;54076;50.322;18.650;2022-10-19T05:45:25;19.90;;;8.40;;
47483;SDS011;54076;50.322;18.650;2022-10-19T05:50:26;17.80;;;9.10;;
47483;SDS011;54076;50.322;18.650;2022-10-19T05:55:27;17.70;;;8.90;;
47483;SDS011;54076;50.322;18.650;2022-10-19T06:00:28;15.70;;;8.10;;
47483;SDS011;54076;50.322;18.650;2022-10-19T06:05:29;16.60;;;8.90;;
47483;SDS011;54076;50.322;18.650;2022-10-19T06:10:30;14.20;;;8.50;;
47483;SDS011;54076;50.322;18.650;2022-10-19T06:15:32;16.60;;;8.50;;
47483;SDS011;54076;50.322;18.650;2022-10-19T06:20:36;15.10;;;8.30;;
47483;SDS011;54076;50.322;18.650;2022-10-19T06:25:40;16.90;;;8.50;;
47483;SDS011;54076;50.322;18.650;2022-10-19T06:30:41;19.80;;;8.50;;
47483;SDS011;54076;50.322;18.650;2022-10-19T06:35:42;21.60;;;9.90;;
47483;SDS011;54076;50.322;18.650;2022-10-19T06:40:43;16.60;;;8.40;;
47483;SDS011;54076;50.322;18.650;2022-10-19T06:45:44;19.50;;;9.20;;
47483;SDS011;54076;50.322;18.650;2022-10-19T06:50:45;21.50;;;9.80;;
47483;SDS011;54076;50.322;18.650;2022-10-19T06:55:46;20.80;;;10.60;;
47483;SDS011;54076;50.322;18.650;2022-10-19T07:00:56;24.90;;;9.80;;
47483;SDS011;54076;50.322;18.650;2022-10-19T07:06:02;22.20;;;10.40;;
47483;SDS011;54076;50.322;18.650;2022-10-19T07:11:09;19.90;;;9.50;;
47483;SDS011;54076;50.322;18.650;2022-10-19T07:16:14;25.60;;;11.90;;
47483;SDS011;54076;50.322;18.650;2022-10-19T07:21:18;19.90;;;9.90;;
47483;SDS011;54076;50.322;18.650;2022-10-19T07:26:25;20.10;;;8.70;;
47483;SDS011;54076;50.322;18.650;2022-10-19T07:31:28;17.50;;;8.80;;
47483;SDS011;54076;50.322;18.650;2022-10-19T07:36:32;15.40;;;7.50;;
47483;SDS011;54076;50.322;18.650;2022-10-19T07:41:34;14.60;;;7.30;;
47483;SDS011;54076;50.322;18.650;2022-10-19T07:46:35;13.80;;;6.80;;
47483;SDS011;54076;50.322;18.650;2022-10-19T07:51:38;14.70;;;6.70;;
47483;SDS011;54076;50.322;18.650;2022-10-19T07:56:40;13.90;;;5.60;;
47483;SDS011;54076;50.322;18.650;2022-10-19T08:01:41;10.50;;;5.10;;
47483;SDS011;54076;50.322;18.650;2022-10-19T08:06:43;11.70;;;4.60;;
47483;SDS011;54076;50.322;18.650;2022-10-19T08:11:44;10.10;;;4.00;;
47483;SDS011;54076;50.322;18.650;2022-10-19T08:16:45;7.60;;;4.30;;
47483;SDS011;54076;50.322;18.650;2022-10-19T08:21:46;8.80;;;3.30;;
47483;SDS011;54076;50.322;18.650;2022-10-19T08:26:48;8.30;;;2.70;;
47483;SDS011;54076;50.322;18.650;2022-10-19T08:31:51;7.70;;;2.80;;
47483;SDS011;54076;50.322;18.650;2022-10-19T08:36:52;13.70;;;2.70;;
47483;SDS011;54076;50.322;18.650;2022-10-19T08:42:01;5.60;;;2.80;;
47483;SDS011;54076;50.322;18.650;2022-10-19T08:52:37;9.10;;;3.00;;
47483;SDS011;54076;50.322;18.650;2022-10-19T08:57:41;9.50;;;2.90;;
47483;SDS011;54076;50.322;18.650;2022-10-19T09:08:15;11.30;;;3.30;;
47483;SDS011;54076;50.322;18.650;2022-10-19T09:13:32;7.60;;;3.10;;
47483;SDS011;54076;50.322;18.650;2022-10-19T09:18:37;11.50;;;3.00;;
47483;SDS011;54076;50.322;18.650;2022-10-19T09:23:40;8.30;;;3.00;;
47483;SDS011;54076;50.322;18.650;2022-10-19T09:34:49;9.20;;;2.70;;
47483;SDS011;54076;50.322;18.650;2022-10-19T09:39:53;10.60;;;2.80;;
47483;SDS011;54076;50.322;18.650;2022-10-19T09:44:56;7.90;;;2.70;;
47483;SDS011;54076;50.322;18.650;2022-10-19T10:00:35;7.60;;;2.50;;
47483;SDS011;54076;50.322;18.650;2022-10-19T10:05:39;7.70;;;2.10;;
47483;SDS011;54076;50.322;18.650;2022-10-19T10:11:02;5.70;;;2.30;;
47483;SDS011;54076;50.322;18.650;2022-10-19T10:16:09;4.70;;;2.10;;
47483;SDS011;54076;50.322;18.650;2022-10-19T10:21:22;7.20;;;2.40;;
47483;SDS011;54076;50.322;18.650;2022-10-19T10:26:25;6.80;;;2.30;;
47483;SDS011;54076;50.322;18.650;2022-10-19T10:31:27;5.60;;;2.20;;
47483;SDS011;54076;50.322;18.650;2022-10-19T10:36:30;9.80;;;3.60;;
47483;SDS011;54076;50.322;18.650;2022-10-19T10:41:37;5.80;;;2.60;;
47483;SDS011;54076;50.322;18.650;2022-10-19T10:46:59;5.70;;;2.10;;
47483;SDS011;54076;50.322;18.650;2022-10-19T10:52:06;5.40;;;2.30;;
47483;SDS011;54076;50.322;18.650;2022-10-19T10:57:13;6.30;;;2.20;;
47483;SDS011;54076;50.322;18.650;2022-10-19T11:03:03;6.20;;;2.00;;
47483;SDS011;54076;50.322;18.650;2022-10-19T11:19:34;4.80;;;2.00;;
47483;SDS011;54076;50.322;18.650;2022-10-19T11:24:49;4.70;;;1.80;;
47483;SDS011;54076;50.322;18.650;2022-10-19T11:30:23;5.10;;;2.00;;
47483;SDS011;54076;50.322;18.650;2022-10-19T11:35:51;5.60;;;1.90;;
47483;SDS011;54076;50.322;18.650;2022-10-19T11:41:24;4.60;;;1.70;;
47483;SDS011;54076;50.322;18.650;2022-10-19T11:52:22;6.30;;;2.00;;
47483;SDS011;54076;50.322;18.650;2022-10-19T11:58:02;4.10;;;1.50;;
47483;SDS011;54076;50.322;18.650;2022-10-19T12:03:43;9.60;;;2.30;;
47483;SDS011;54076;50.322;18.650;2022-10-19T12:14:24;9.20;;;1.90;;
47483;SDS011;54076;50.322;18.650;2022-10-19T12:19:35;4.60;;;1.80;;
47483;SDS011;54076;50.322;18.650;2022-10-19T12:24:40;4.50;;;2.00;;
47483;SDS011;54076;50.322;18.650;2022-10-19T12:29:43;4.30;;;1.80;;
47483;SDS011;54076;50.322;18.650;2022-10-19T12:35:02;5.50;;;2.10;;
47483;SDS011;54076;50.322;18.650;2022-10-19T12:51:28;4.70;;;2.00;;
47483;SDS011;54076;50.322;18.650;2022-10-19T12:56:29;6.30;;;2.10;;
47483;SDS011;54076;50.322;18.650;2022-10-19T13:06:36;7.50;;;2.70;;
47483;SDS011;54076;50.322;18.650;2022-10-19T13:22:50;5.00;;;2.10;;
47483;SDS011;54076;50.322;18.650;2022-10-19T13:38:32;16.30;;;2.20;;
47483;SDS011;54076;50.322;18.650;2022-10-19T13:44:23;5.70;;;1.50;;
47483;SDS011;54076;50.322;18.650;2022-10-19T13:49:17;3.50;;;1.20;;
47483;SDS011;54076;50.322;18.650;2022-10-19T14:00:18;4.40;;;1.50;;
47483;SDS011;54076;50.322;18.650;2022-10-19T14:11:46;3.90;;;1.50;;
47483;SDS011;54076;50.322;18.650;2022-10-19T14:17:01;4.10;;;1.50;;
47483;SDS011;54076;50.322;18.650;2022-10-19T14:22:17;3.30;;;1.30;;
47483;SDS011;54076;50.322;18.650;2022-10-19T14:27:40;5.60;;;1.90;;
47483;SDS011;54076;50.322;18.650;2022-10-19T14:32:41;4.20;;;1.60;;
47483;SDS011;54076;50.322;18.650;2022-10-19T14:37:42;6.00;;;1.40;;
47483;SDS011;54076;50.322;18.650;2022-10-19T14:42:44;7.20;;;1.80;;
47483;SDS011;54076;50.322;18.650;2022-10-19T14:48:02;4.70;;;1.70;;
47483;SDS011;54076;50.322;18.650;2022-10-19T14:53:28;4.50;;;1.60;;
47483;SDS011;54076;50.322;18.650;2022-10-19T14:59:06;4.50;;;1.70;;
47483;SDS011;54076;50.322;18.650;2022-10-19T15:04:31;4.70;;;1.90;;
47483;SDS011;54076;50.322;18.650;2022-10-19T15:09:46;5.20;;;1.70;;
47483;SDS011;54076;50.322;18.650;2022-10-19T15:14:53;4.70;;;1.80;;
47483;SDS011;54076;50.322;18.650;2022-10-19T15:19:55;5.30;;;2.60;;
47483;SDS011;54076;50.322;18.650;2022-10-19T15:25:33;4.60;;;2.00;;
47483;SDS011;54076;50.322;18.650;2022-10-19T15:30:36;7.60;;;1.80;;
47483;SDS011;54076;50.322;18.650;2022-10-19T15:35:38;5.00;;;1.90;;
47483;SDS011;54076;50.322;18.650;2022-10-19T15:40:42;4.20;;;1.90;;
47483;SDS011;54076;50.322;18.650;2022-10-19T15:45:45;4.30;;;1.60;;
47483;SDS011;54076;50.322;18.650;2022-10-19T15:50:48;7.70;;;1.70;;
47483;SDS011;54076;50.322;18.650;2022-10-19T15:55:51;6.90;;;1.90;;
47483;SDS011;54076;50.322;18.650;2022-10-19T16:00:52;4.70;;;1.90;;
47483;SDS011;54076;50.322;18.650;2022-10-19T16:05:53;6.30;;;2.20;;
47483;SDS011;54076;50.322;18.650;2022-10-19T16:10:54;8.20;;;2.60;;
47483;SDS011;54076;50.322;18.650;2022-10-19T16:16:01;6.80;;;2.80;;
47483;SDS011;54076;50.322;18.650;2022-10-19T16:21:04;7.90;;;3.30;;
47483;SDS011;54076;50.322;18.650;2022-10-19T16:26:06;7.80;;;4.00;;
47483;SDS011;54076;50.322;18.650;2022-10-19T16:31:07;8.50;;;4.10;;
47483;SDS011;54076;50.322;18.650;2022-10-19T16:36:08;11.60;;;4.20;;
47483;SDS011;54076;50.322;18.650;2022-10-19T16:41:10;10.40;;;3.80;;
47483;SDS011;54076;50.322;18.650;2022-10-19T16:46:11;13.70;;;4.60;;
47483;SDS011;54076;50.322;18.650;2022-10-19T16:51:24;8.00;;;2.80;;
47483;SDS011;54076;50.322;18.650;2022-10-19T16:56:28;7.10;;;3.10;;
47483;SDS011;54076;50.322;18.650;2022-10-19T17:01:31;7.90;;;3.00;;
47483;SDS011;54076;50.322;18.650;2022-10-19T17:06:33;6.90;;;3.40;;
47483;SDS011;54076;50.322;18.650;2022-10-19T17:11:36;6.00;;;2.60;;
47483;SDS011;54076;50.322;18.650;2022-10-19T17:16:38;24.80;;;11.90;;
47483;SDS011;54076;50.322;18.650;2022-10-19T17:21:40;9.60;;;4.10;;
47483;SDS011;54076;50.322;18.650;2022-10-19T17:26:42;18.40;;;6.80;;
47483;SDS011;54076;50.322;18.650;2022-10-19T17:31:45;11.10;;;4.30;;
47483;SDS011;54076;50.322;18.650;2022-10-19T17:36:46;9.50;;;4.70;;
47483;SDS011;54076;50.322;18.650;2022-10-19T17:41:48;11.70;;;4.60;;
47483;SDS011;54076;50.322;18.650;2022-10-19T17:46:50;11.00;;;4.70;;
47483;SDS011;54076;50.322;18.650;2022-10-19T17:51:51;14.10;;;4.30;;
47483;SDS011;54076;50.322;18.650;2022-10-19T17:56:53;9.30;;;4.40;;
47483;SDS011;54076;50.322;18.650;2022-10-19T18:01:54;10.70;;;4.50;;
47483;SDS011;54076;50.322;18.650;2022-10-19T18:06:55;7.80;;;3.60;;
47483;SDS011;54076;50.322;18.650;2022-10-19T18:11:56;9.10;;;3.80;;
47483;SDS011;54076;50.322;18.650;2022-10-19T18:16:57;10.20;;;4.20;;
47483;SDS011;54076;50.322;18.650;2022-10-19T18:21:58;9.50;;;4.60;;
47483;SDS011;54076;50.322;18.650;2022-10-19T18:38:21;17.70;;;8.20;;
47483;SDS011;54076;50.322;18.650;2022-10-19T18:43:22;10.80;;;4.50;;
47483;SDS011;54076;50.322;18.650;2022-10-19T18:48:27;14.00;;;5.70;;
47483;SDS011;54076;50.322;18.650;2022-10-19T18:53:30;10.70;;;4.50;;
47483;SDS011;54076;50.322;18.650;2022-10-19T18:58:32;9.90;;;4.50;;
47483;SDS011;54076;50.322;18.650;2022-10-19T19:03:35;8.90;;;3.90;;
47483;SDS011;54076;50.322;18.650;2022-10-19T19:08:37;7.30;;;3.40;;
47483;SDS011;54076;50.322;18.650;2022-10-19T19:13:39;9.90;;;3.60;;
47483;SDS011;54076;50.322;18.650;2022-10-19T19:18:42;8.80;;;3.20;;
47483;SDS011;54076;50.322;18.650;2022-10-19T19:23:44;8.00;;;3.00;;
47483;SDS011;54076;50.322;18.650;2022-10-19T19:28:46;9.10;;;3.40;;
47483;SDS011;54076;50.322;18.650;2022-10-19T19:33:47;11.80;;;3.30;;
47483;SDS011;54076;50.322;18.650;2022-10-19T19:38:48;9.90;;;4.60;;
47483;SDS011;54076;50.322;18.650;2022-10-19T19:43:51;8.70;;;4.30;;
47483;SDS011;54076;50.322;18.650;2022-10-19T19:48:58;8.30;;;3.70;;
47483;SDS011;54076;50.322;18.650;2022-10-19T19:54:00;7.40;;;3.40;;
47483;SDS011;54076;50.322;18.650;2022-10-19T19:59:01;9.40;;;3.50;;
47483;SDS011;54076;50.322;18.650;2022-10-19T20:04:05;9.30;;;4.00;;
47483;SDS011;54076;50.322;18.650;2022-10-19T20:09:06;7.60;;;3.20;;
47483;SDS011;54076;50.322;18.650;2022-10-19T20:14:09;7.70;;;3.50;;
47483;SDS011;54076;50.322;18.650;2022-10-19T20:19:12;7.00;;;3.20;;
47483;SDS011;54076;50.322;18.650;2022-10-19T20:24:14;8.50;;;3.60;;
47483;SDS011;54076;50.322;18.650;2022-10-19T20:29:15;8.00;;;3.40;;
47483;SDS011;54076;50.322;18.650;2022-10-19T20:34:16;9.20;;;3.60;;
47483;SDS011;54076;50.322;18.650;2022-10-19T20:39:17;9.70;;;4.10;;
47483;SDS011;54076;50.322;18.650;2022-10-19T20:44:18;7.70;;;3.70;;
47483;SDS011;54076;50.322;18.650;2022-10-19T20:49:19;8.20;;;3.40;;
47483;SDS011;54076;50.322;18.650;2022-10-19T20:54:20;8.30;;;4.00;;
47483;SDS011;54076;50.322;18.650;2022-10-19T20:59:22;10.60;;;3.70;;
47483;SDS011;54076;50.322;18.650;2022-10-19T21:04:27;7.80;;;3.90;;
47483;SDS011;54076;50.322;18.650;2022-10-19T21:09:28;8.40;;;3.90;;
47483;SDS011;54076;50.322;18.650;2022-10-19T21:14:29;9.80;;;3.80;;
47483;SDS011;54076;50.322;18.650;2022-10-19T21:19:30;8.40;;;3.50;;
47483;SDS011;54076;50.322;18.650;2022-10-19T21:24:33;11.90;;;4.00;;
47483;SDS011;54076;50.322;18.650;2022-10-19T21:29:36;10.00;;;4.30;;
47483;SDS011;54076;50.322;18.650;2022-10-19T21:34:37;8.60;;;3.70;;
47483;SDS011;54076;50.322;18.650;2022-10-19T21:39:38;8.20;;;4.00;;
47483;SDS011;54076;50.322;18.650;2022-10-19T21:44:39;8.40;;;4.00;;
47483;SDS011;54076;50.322;18.650;2022-10-19T21:49:40;10.00;;;3.50;;
47483;SDS011;54076;50.322;18.650;2022-10-19T21:54:41;8.60;;;3.70;;
47483;SDS011;54076;50.322;18.650;2022-10-19T21:59:42;8.10;;;3.80;;
47483;SDS011;54076;50.322;18.650;2022-10-19T22:04:43;8.90;;;3.60;;
47483;SDS011;54076;50.322;18.650;2022-10-19T22:09:44;10.60;;;4.60;;
47483;SDS011;54076;50.322;18.650;2022-10-19T22:14:45;8.20;;;4.30;;
47483;SDS011;54076;50.322;18.650;2022-10-19T22:19:45;9.40;;;4.90;;
47483;SDS011;54076;50.322;18.650;2022-10-19T22:24:46;10.50;;;4.70;;
47483;SDS011;54076;50.322;18.650;2022-10-19T22:29:50;12.20;;;4.20;;
47483;SDS011;54076;50.322;18.650;2022-10-19T22:34:51;9.60;;;4.40;;
47483;SDS011;54076;50.322;18.650;2022-10-19T22:39:52;11.00;;;4.80;;
47483;SDS011;54076;50.322;18.650;2022-10-19T22:44:53;10.00;;;4.80;;
47483;SDS011;54076;50.322;18.650;2022-10-19T22:49:55;10.20;;;4.40;;
47483;SDS011;54076;50.322;18.650;2022-10-19T22:54:56;10.30;;;4.70;;
47483;SDS011;54076;50.322;18.650;2022-10-19T22:59:57;9.80;;;3.90;;
47483;SDS011;54076;50.322;18.650;2022-10-19T23:04:58;8.90;;;4.30;;
47483;SDS011;54076;50.322;18.650;2022-10-19T23:09:59;8.90;;;4.20;;
47483;SDS011;54076;50.322;18.650;2022-10-19T23:15:00;8.70;;;3.80;;
47483;SDS011;54076;50.322;18.650;2022-10-19T23:20:02;9.70;;;4.00;;
47483;SDS011;54076;50.322;18.650;2022-10-19T23:25:03;8.50;;;4.00;;
47483;SDS011;54076;50.322;18.650;2022-10-19T23:30:05;8.30;;;3.60;;
47483;SDS011;54076;50.322;18.650;2022-10-19T23:35:07;7.90;;;3.80;;
47483;SDS011;54076;50.322;18.650;2022-10-19T23:40:08;9.00;;;4.10;;
47483;SDS011;54076;50.322;18.650;2022-10-19T23:45:10;10.00;;;4.60;;
47483;SDS011;54076;50.322;18.650;2022-10-19T23:50:12;11.10;;;4.80;;
47483;SDS011;54076;50.322;18.650;2022-10-19T23:55:13;12.10;;;5.10;;
